Time;durP1;ratioP1;P1;durP2;ratioP2;P2;SDS_P1;SDS_P2;PMS_P1;PMS_P2;Temp;Humidity;BMP_temperature;BMP_pressure;BME280_temperature;BME280_humidity;BME280_pressure;Samples;Min_cycle;Max_cycle;Signal;HPM_P1;HPM_P2
2022/03/27 00:01:16;;;;;;;15.65;14.10;;;;;;;8.11;100.00;103130.59;5191916;28;20050;-81
2022/03/27 00:03:46;;;;;;;14.10;12.70;;;;;;;8.08;100.00;103120.22;5191253;28;20022;-81
2022/03/27 00:06:16;;;;;;;13.82;12.52;;;;;;;8.13;100.00;103120.50;5199926;28;20029;-81
2022/03/27 00:08:47;;;;;;;12.75;11.45;;;;;;;8.16;100.00;103126.53;5205673;28;20049;-81
2022/03/27 00:11:23;;;;;;;13.93;12.82;;;;;;;8.10;100.00;103125.41;5206538;28;20113;-81
2022/03/27 00:13:59;;;;;;;14.20;12.82;;;;;;;8.14;100.00;103119.47;5207911;28;20032;-80
2022/03/27 00:16:31;;;;;;;14.13;12.73;;;;;;;8.16;100.00;103126.53;5221789;28;20022;-81
2022/03/27 00:19:02;;;;;;;13.43;12.18;;;;;;;8.00;100.00;103119.47;5203105;28;20030;-82
2022/03/27 00:21:33;;;;;;;11.13;10.32;;;;;;;7.74;100.00;103069.63;5192040;28;20022;-82
2022/03/27 00:24:03;;;;;;;15.60;13.63;;;;;;;7.72;100.00;103081.59;5207059;28;20049;-82
2022/03/27 00:26:34;;;;;;;13.07;11.90;;;;;;;8.09;100.00;103132.66;5192092;28;20033;-81
2022/03/27 00:29:04;;;;;;;12.52;11.63;;;;;;;8.05;100.00;103123.31;5191351;28;20041;-81
2022/03/27 00:31:38;;;;;;;14.52;9.43;;;;;;;8.03;100.00;103133.41;5190287;28;20038;-82
2022/03/27 00:34:09;;;;;;;15.70;14.18;;;;;;;7.86;100.00;103104.97;5190812;28;20394;-82
2022/03/27 00:36:40;;;;;;;13.55;12.27;;;;;;;8.00;100.00;103125.69;5191602;28;20026;-82
2022/03/27 00:39:10;;;;;;;12.57;11.50;;;;;;;7.63;100.00;103078.13;5191716;28;20036;-81
2022/03/27 00:41:43;;;;;;;12.68;11.65;;;;;;;7.97;100.00;103122.53;5191454;28;20501;-82
2022/03/27 00:44:13;;;;;;;13.75;12.73;;;;;;;7.96;100.00;103127.09;5191059;28;20026;-82
2022/03/27 00:46:44;;;;;;;13.10;11.95;;;;;;;7.78;100.00;103099.69;5191101;28;20056;-82
2022/03/27 00:49:14;;;;;;;13.65;11.85;;;;;;;7.88;100.00;103120.94;5191161;28;20030;-81
2022/03/27 00:57:51;;;;;;;;;;;;;;;7.86;100.00;103129.19;6145914;22;20745;-80
2022/03/27 01:00:46;;;;;;;15.85;14.45;;;;;;;7.80;100.00;103124.53;5202607;28;19979;-80
2022/03/27 01:03:20;;;;;;;11.98;11.05;;;;;;;7.77;100.00;103128.44;5191191;28;20045;-80
2022/03/27 01:05:52;;;;;;;13.25;11.95;;;;;;;6.13;100.00;102856.91;5263579;22;20080;-83
2022/03/27 01:11:18;;;;;;;13.90;12.80;;;;;;;7.48;100.00;103092.56;5227450;28;20036;-84
2022/03/27 01:13:58;;;;;;;16.73;12.25;;;;;;;7.63;100.00;103120.31;5226137;28;20089;-82
2022/03/27 01:16:55;;;;;;;13.45;12.50;;;;;;;7.47;100.00;103104.34;5242160;28;20018;-81
2022/03/27 01:19:28;;;;;;;14.50;12.23;;;;;;;5.83;100.00;102855.88;5217387;22;20096;-81
2022/03/27 01:22:00;;;;;;;12.50;11.43;;;;;;;6.46;100.00;102944.25;5175730;28;20053;-81
2022/03/27 01:24:30;;;;;;;14.75;13.52;;;;;;;6.86;100.00;103038.97;5176619;28;20037;-80
2022/03/27 01:27:01;;;;;;;17.70;14.85;;;;;;;6.82;100.00;103026.91;5177257;28;20026;-84
2022/03/27 01:29:32;;;;;;;15.68;14.07;;;;;;;6.66;100.00;103004.50;5158877;28;20022;-81
2022/03/27 01:32:04;;;;;;;12.00;11.10;;;;;;;6.98;100.00;103061.69;5175965;28;20026;-80
2022/03/27 01:34:34;;;;;;;15.35;14.05;;;;;;;6.03;100.00;102932.25;5176908;28;20026;-81
2022/03/27 01:37:09;;;;;;;14.18;12.32;;;;;;;6.32;100.00;102943.16;5175066;28;20109;-79
2022/03/27 01:39:40;;;;;;;14.10;13.00;;;;;;;7.17;100.00;103120.34;5174728;28;20057;-80
2022/03/27 01:42:11;;;;;;;13.25;12.15;;;;;;;6.55;100.00;102990.66;5175820;28;20030;-81
2022/03/27 01:44:41;;;;;;;13.65;11.63;;;;;;;6.68;100.00;103032.00;5158101;28;20034;-81
2022/03/27 01:47:12;;;;;;;11.73;10.77;;;;;;;7.34;100.00;103126.44;5176462;28;20026;-80
2022/03/27 01:49:43;;;;;;;14.07;13.00;;;;;;;6.61;100.00;103025.69;5175399;28;20077;-78
2022/03/27 01:52:16;;;;;;;17.10;12.30;;;;;;;6.15;100.00;102921.94;5175347;28;20108;-81
2022/03/27 01:54:47;;;;;;;15.88;13.98;;;;;;;5.93;100.00;102932.47;5175350;28;20022;-81
2022/03/27 01:57:17;;;;;;;13.30;12.20;;;;;;;5.27;100.00;102802.38;5159320;28;20057;-81
2022/03/27 01:59:48;;;;;;;13.00;12.10;;;;;;;6.99;100.00;103069.56;5177124;28;20026;-81
2022/03/27 02:02:28;;;;;;;15.23;12.60;;;;;;;5.64;100.00;102881.28;5159011;28;20036;-81
2022/03/27 02:05:00;;;;;;;14.30;12.65;;;;;;;6.53;100.00;103025.72;5158750;28;20026;-80
2022/03/27 02:07:38;;;;;;;15.98;14.50;;;;;;;6.48;100.00;103020.03;5176208;28;20029;-81
2022/03/27 02:10:09;;;;;;;20.00;13.48;;;;;;;6.69;100.00;103057.84;5176022;28;20032;-84
2022/03/27 02:12:40;;;;;;;14.88;11.20;;;;;;;6.71;100.00;103039.72;5176523;28;20053;-83
2022/03/27 02:15:11;;;;;;;14.80;13.20;;;;;;;6.81;100.00;103058.28;5175466;28;20050;-83
2022/03/27 02:17:41;;;;;;;26.13;13.63;;;;;;;6.82;100.00;103064.50;5174762;28;20116;-84
2022/03/27 02:20:12;;;;;;;16.15;14.63;;;;;;;6.40;100.00;102993.25;5158096;28;20026;-84
2022/03/27 02:22:42;;;;;;;13.23;12.00;;;;;;;6.67;100.00;103051.81;5175868;28;20034;-83
2022/03/27 02:25:13;;;;;;;12.23;10.88;;;;;;;6.93;100.00;103101.69;5157925;28;20018;-82
2022/03/27 02:27:44;;;;;;;14.85;13.52;;;;;;;6.43;100.00;103025.09;5158669;28;20113;-84
2022/03/27 02:30:15;;;;;;;13.00;11.90;;;;;;;6.66;100.00;103066.25;5175544;28;20030;-84
2022/03/27 02:32:47;;;;;;;19.85;12.55;;;;;;;6.80;100.00;103079.94;5176367;28;20018;-84
2022/03/27 02:35:18;;;;;;;15.32;14.02;;;;;;;6.56;100.00;103049.53;5158565;28;20026;-80
2022/03/27 02:37:49;;;;;;;13.48;12.43;;;;;;;6.83;100.00;103088.50;5176271;28;20023;-84
2022/03/27 02:40:19;;;;;;;14.50;13.02;;;;;;;6.39;100.00;103016.56;5158197;28;20117;-81
2022/03/27 02:42:50;;;;;;;14.50;13.32;;;;;;;6.75;100.00;103084.00;5177001;28;20049;-83
2022/03/27 02:45:21;;;;;;;15.88;14.48;;;;;;;6.61;100.00;103068.66;5176873;28;20037;-83
2022/03/27 02:47:51;;;;;;;14.77;13.40;;;;;;;6.77;100.00;103091.88;5176694;28;20030;-83
2022/03/27 02:50:24;;;;;;;18.13;14.18;;;;;;;6.67;100.00;103075.13;5159661;28;20098;-80
2022/03/27 02:52:54;;;;;;;16.45;14.65;;;;;;;6.77;100.00;103098.09;5176867;28;20413;-82
2022/03/27 02:55:25;;;;;;;15.48;13.65;;;;;;;6.65;100.00;103075.31;5176875;28;20074;-82
2022/03/27 02:57:56;;;;;;;16.10;14.90;;;;;;;6.56;100.00;103079.06;5161936;28;20042;-83
2022/03/27 03:00:27;;;;;;;18.10;13.20;;;;;;;6.69;100.00;103100.78;5177778;28;20034;-83
2022/03/27 03:02:58;;;;;;;18.95;15.18;;;;;;;6.59;100.00;103073.34;5179405;28;20033;-83
2022/03/27 03:05:29;;;;;;;17.50;14.55;;;;;;;6.59;100.00;103067.16;5163148;28;20093;-81
2022/03/27 03:08:01;;;;;;;16.83;15.30;;;;;;;6.69;100.00;103099.97;5182728;28;20026;-82
2022/03/27 03:10:32;;;;;;;16.13;12.77;;;;;;;6.66;100.00;103082.34;5164019;28;20102;-83
2022/03/27 03:13:03;;;;;;;14.52;13.52;;;;;;;6.57;100.00;103075.38;5175603;28;20486;-81
2022/03/27 03:15:35;;;;;;;14.60;13.35;;;;;;;6.65;100.00;103088.72;5157723;28;20033;-83
2022/03/27 03:18:08;;;;;;;14.35;12.90;;;;;;;6.66;100.00;103097.63;5163598;28;20026;-80
2022/03/27 03:20:40;;;;;;;12.90;11.98;;;;;;;6.44;100.00;103057.13;5169829;28;20089;-81
2022/03/27 03:23:11;;;;;;;17.10;13.27;;;;;;;6.03;100.00;102983.22;5185531;28;20029;-81
2022/03/27 03:25:42;;;;;;;13.55;12.55;;;;;;;6.53;100.00;103063.31;5169993;28;20026;-83
2022/03/27 03:28:13;;;;;;;15.55;14.27;;;;;;;6.63;100.00;103111.44;5184451;28;20086;-83
2022/03/27 03:30:44;;;;;;;14.32;12.82;;;;;;;6.39;100.00;103085.50;5168004;28;20102;-82
2022/03/27 03:33:14;;;;;;;15.68;14.50;;;;;;;6.19;100.00;103023.38;5189739;28;20049;-80
2022/03/27 03:35:45;;;;;;;14.82;13.63;;;;;;;6.38;100.00;103060.50;5170103;28;20037;-82
2022/03/27 03:38:16;;;;;;;16.55;15.10;;;;;;;5.85;100.00;102974.53;5169059;28;20112;-83
2022/03/27 03:40:46;;;;;;;16.48;15.05;;;;;;;6.40;100.00;103068.38;5185616;28;20117;-82
2022/03/27 03:43:19;;;;;;;14.15;12.75;;;;;;;6.28;100.00;103054.53;5184341;28;20057;-82
2022/03/27 03:45:50;;;;;;;31.67;15.10;;;;;;;5.98;100.00;103015.91;5185730;28;20042;-82
2022/03/27 03:48:20;;;;;;;19.20;17.58;;;;;;;6.43;100.00;103082.28;5168421;28;20026;-83
2022/03/27 03:50:53;;;;;;;17.83;15.77;;;;;;;6.43;100.00;103073.41;5183445;28;20022;-84
2022/03/27 03:53:24;;;;;;;17.13;15.57;;;;;;;6.38;100.00;103086.50;5186181;28;20022;-79
2022/03/27 03:55:55;;;;;;;22.25;16.02;;;;;;;5.59;100.00;102967.56;5168854;28;20359;-83
2022/03/27 03:58:26;;;;;;;18.30;16.88;;;;;;;5.59;100.00;102961.38;5169237;28;20034;-80
2022/03/27 04:00:57;;;;;;;16.88;15.40;;;;;;;6.19;100.00;103068.97;5170022;28;20064;-83
2022/03/27 04:03:28;;;;;;;17.08;15.70;;;;;;;6.28;100.00;103088.56;5165229;28;20025;-80
2022/03/27 04:05:59;;;;;;;18.95;17.67;;;;;;;6.14;100.00;103059.78;5182749;28;20494;-79
2022/03/27 04:08:29;;;;;;;17.23;15.95;;;;;;;5.62;100.00;102977.09;5184293;28;20034;-83
2022/03/27 04:11:00;;;;;;;17.10;15.70;;;;;;;6.03;100.00;103048.41;5187407;28;20045;-83
2022/03/27 04:13:30;;;;;;;16.42;15.05;;;;;;;5.75;100.00;103010.44;5170094;28;20053;-78
2022/03/27 04:16:01;;;;;;;18.83;15.18;;;;;;;6.22;100.00;103070.47;5186017;28;20046;-80
2022/03/27 04:18:31;;;;;;;16.50;15.13;;;;;;;5.89;100.00;103022.31;5183420;28;20033;-83
2022/03/27 04:21:02;;;;;;;18.60;16.98;;;;;;;6.00;100.00;103040.72;5185072;28;20022;-80
2022/03/27 04:23:33;;;;;;;20.35;18.42;;;;;;;6.29;100.00;103058.06;5170193;28;20026;-83
2022/03/27 04:26:04;;;;;;;20.50;18.50;;;;;;;6.42;100.00;103083.31;5168605;28;20022;-80
2022/03/27 04:28:35;;;;;;;19.50;17.77;;;;;;;6.20;100.00;103048.34;5184375;28;20041;-82
2022/03/27 04:31:06;;;;;;;18.00;16.40;;;;;;;6.21;100.00;103055.38;5187667;28;20026;-78
2022/03/27 04:33:37;;;;;;;21.33;19.58;;;;;;;6.14;100.00;103006.13;5186780;28;20050;-81
2022/03/27 04:36:08;;;;;;;21.05;19.23;;;;;;;5.85;100.00;102978.03;5189626;28;20038;-79
2022/03/27 04:38:39;;;;;;;20.73;19.05;;;;;;;5.89;100.00;102959.78;5173250;28;20028;-80
2022/03/27 04:41:09;;;;;;;22.65;20.45;;;;;;;6.30;100.00;103028.38;5187785;28;20066;-81
2022/03/27 04:43:39;;;;;;;24.60;22.38;;;;;;;5.52;100.00;102891.53;5182139;28;20030;-82
2022/03/27 04:46:10;;;;;;;24.58;22.25;;;;;;;6.68;100.00;103088.38;5179771;28;20022;-80
2022/03/27 04:48:40;;;;;;;22.02;20.15;;;;;;;5.86;100.00;102965.47;5179443;28;20033;-80
2022/03/27 04:51:12;;;;;;;20.80;19.13;;;;;;;6.06;100.00;102993.59;5162574;28;20033;-81
2022/03/27 04:53:42;;;;;;;22.27;20.25;;;;;;;6.73;100.00;103091.38;5160666;28;20026;-83
2022/03/27 04:56:13;;;;;;;22.98;20.85;;;;;;;6.61;100.00;103070.50;5179159;28;20037;-83
2022/03/27 04:58:43;;;;;;;22.90;21.00;;;;;;;6.28;100.00;103016.13;5179857;28;20023;-80
2022/03/27 05:01:14;;;;;;;26.25;23.83;;;;;;;6.58;100.00;103068.16;5179255;28;20018;-83
2022/03/27 05:03:45;;;;;;;27.20;24.35;;;;;;;6.74;100.00;103087.69;5176805;28;20018;-84
2022/03/27 05:06:16;;;;;;;23.73;21.75;;;;;;;6.85;100.00;103093.69;5169879;28;20042;-79
2022/03/27 05:08:46;;;;;;;26.67;24.02;;;;;;;6.32;100.00;103020.16;5179279;28;20029;-83
2022/03/27 05:11:18;;;;;;;23.45;21.52;;;;;;;6.66;100.00;103089.56;5179514;28;20038;-82
2022/03/27 05:13:48;;;;;;;37.80;21.35;;;;;;;6.83;100.00;103106.44;5180305;28;20026;-82
2022/03/27 05:16:19;;;;;;;34.55;23.20;;;;;;;6.63;100.00;103079.22;5180127;28;20119;-83
2022/03/27 05:18:49;;;;;;;25.65;23.23;;;;;;;6.78;100.00;103104.28;5177130;28;20095;-86
2022/03/27 05:21:21;;;;;;;25.88;23.65;;;;;;;6.21;100.00;103025.88;5177793;28;20049;-83
2022/03/27 05:23:51;;;;;;;24.88;22.48;;;;;;;6.47;100.00;103053.25;5177886;28;20027;-84
2022/03/27 05:26:22;;;;;;;29.90;25.58;;;;;;;6.13;100.00;102999.09;5161561;28;20027;-83
2022/03/27 05:28:53;;;;;;;23.42;21.33;;;;;;;6.80;100.00;103101.44;5162564;28;20094;-79
2022/03/27 05:31:23;;;;;;;25.95;23.27;;;;;;;6.39;100.00;103043.41;5178207;28;20031;-81
2022/03/27 05:33:54;;;;;;;23.67;21.63;;;;;;;6.39;100.00;103061.34;5161093;28;20254;-83
2022/03/27 05:36:25;;;;;;;26.08;23.77;;;;;;;6.38;100.00;103043.56;5180832;28;20513;-83
2022/03/27 05:38:55;;;;;;;28.20;25.27;;;;;;;6.51;100.00;103072.53;5163054;28;20041;-81
2022/03/27 05:41:26;;;;;;;29.15;24.20;;;;;;;6.66;100.00;103094.94;5180360;28;20033;-80
2022/03/27 05:43:56;;;;;;;37.10;25.70;;;;;;;6.53;100.00;103076.72;5181024;28;20037;-82
2022/03/27 05:46:27;;;;;;;26.77;23.33;;;;;;;6.24;100.00;103028.22;5180771;28;20125;-83
2022/03/27 05:48:57;;;;;;;28.05;25.17;;;;;;;6.26;100.00;103053.03;5179343;28;20030;-80
2022/03/27 05:51:27;;;;;;;26.50;24.23;;;;;;;6.50;100.00;103073.56;5162504;28;20109;-79
2022/03/27 05:53:58;;;;;;;28.48;25.92;;;;;;;6.54;100.00;103073.03;5169731;28;20030;-78
2022/03/27 05:56:28;;;;;;;23.25;21.02;;;;;;;6.13;100.00;103018.69;5181228;28;20026;-81
2022/03/27 05:58:59;;;;;;;25.13;22.05;;;;;;;6.93;100.00;103139.31;5180064;28;20066;-84
2022/03/27 06:01:29;;;;;;;26.40;23.92;;;;;;;6.15;100.00;103005.09;5185275;28;20082;-78
2022/03/27 06:03:59;;;;;;;27.00;24.70;;;;;;;6.71;100.00;103108.69;5179525;28;20084;-81
2022/03/27 06:06:30;;;;;;;26.67;24.38;;;;;;;6.92;100.00;103143.00;5176546;28;20418;-81
2022/03/27 06:09:00;;;;;;;25.45;23.02;;;;;;;6.50;100.00;103101.22;5177073;28;20557;-81
2022/03/27 06:11:30;;;;;;;34.33;26.75;;;;;;;6.73;100.00;103114.72;5176530;28;20375;-80
2022/03/27 06:14:01;;;;;;;62.90;26.50;;;;;;;6.51;100.00;103084.13;5175988;28;20033;-81
2022/03/27 06:16:31;;;;;;;26.80;24.52;;;;;;;6.87;100.00;103156.13;5174550;28;20022;-80
2022/03/27 06:19:02;;;;;;;27.58;25.08;;;;;;;6.51;100.00;103078.75;5175448;28;20030;-79
2022/03/27 06:21:32;;;;;;;31.15;24.75;;;;;;;6.70;100.00;103117.75;5176093;28;20034;-80
2022/03/27 06:24:03;;;;;;;31.90;24.70;;;;;;;6.75;100.00;103116.22;5175245;28;20022;-80
2022/03/27 06:26:33;;;;;;;25.52;23.05;;;;;;;6.99;100.00;103166.28;5175606;28;20034;-80
2022/03/27 06:29:05;;;;;;;29.55;26.23;;;;;;;6.88;100.00;103139.00;5176296;28;20046;-80
2022/03/27 06:31:37;;;;;;;28.20;25.50;;;;;;;6.89;100.00;103143.34;5178102;28;20097;-82
2022/03/27 06:34:08;;;;;;;26.55;24.27;;;;;;;6.64;100.00;103102.38;5176516;28;20030;-80
2022/03/27 06:36:41;;;;;;;25.77;23.23;;;;;;;6.42;100.00;103061.00;5176614;28;20025;-81
2022/03/27 06:39:13;;;;;;;30.17;26.95;;;;;;;7.02;100.00;103160.56;5176526;28;20018;-81
2022/03/27 06:41:44;;;;;;;39.10;27.15;;;;;;;7.02;100.00;103181.22;5176752;28;20410;-81
2022/03/27 06:44:15;;;;;;;25.40;23.02;;;;;;;7.00;100.00;103156.38;5182203;28;20030;-81
2022/03/27 06:46:45;;;;;;;24.70;22.20;;;;;;;7.05;100.00;103164.75;5182533;28;20078;-81
2022/03/27 06:49:16;;;;;;;29.23;24.70;;;;;;;7.00;100.00;103157.22;5184270;28;20030;-80
2022/03/27 06:51:46;;;;;;;30.02;26.83;;;;;;;6.89;100.00;103154.09;5182495;28;20026;-83
2022/03/27 06:54:20;;;;;;;33.53;26.13;;;;;;;7.01;100.00;103160.72;5176691;28;20026;-82
2022/03/27 06:56:50;;;;;;;35.10;26.55;;;;;;;7.06;100.00;103167.25;5175697;28;20024;-82
2022/03/27 06:59:21;;;;;;;55.60;28.58;;;;;;;7.08;100.00;103161.72;5176486;28;20501;-81
2022/03/27 07:04:41;;;;;;;34.40;29.60;;;;;;;7.12;100.00;103160.34;5178558;28;20102;-81
2022/03/27 07:07:11;;;;;;;38.47;29.15;;;;;;;7.21;100.00;103178.09;5175972;28;20050;-81
2022/03/27 07:09:42;;;;;;;28.20;24.67;;;;;;;7.24;100.00;103174.19;5176907;28;20018;-81
2022/03/27 07:12:12;;;;;;;31.83;27.90;;;;;;;7.11;100.00;103148.75;5176584;28;20033;-81
2022/03/27 07:14:43;;;;;;;35.53;32.00;;;;;;;7.21;100.00;103161.13;5176717;28;20073;-80
2022/03/27 07:17:17;;;;;;;43.85;31.35;;;;;;;7.17;100.00;103154.44;5176686;28;20057;-81
2022/03/27 07:19:48;;;;;;;34.88;28.98;;;;;;;7.28;100.00;103167.47;5194816;23;20165;-82
2022/03/27 07:22:19;;;;;;;30.65;27.73;;;;;;;6.97;100.00;103121.78;5186753;28;20030;-85
2022/03/27 07:24:50;;;;;;;33.47;29.75;;;;;;;7.25;100.00;103147.16;5179092;28;20033;-82
2022/03/27 07:27:20;;;;;;;32.05;28.90;;;;;;;6.90;100.00;103078.72;5178656;28;20026;-85
2022/03/27 07:29:51;;;;;;;34.30;30.88;;;;;;;7.19;100.00;103122.88;5178018;28;20569;-86
2022/03/27 07:32:21;;;;;;;42.70;31.65;;;;;;;7.02;100.00;103100.63;5179127;28;20030;-87
2022/03/27 07:34:52;;;;;;;30.98;26.52;;;;;;;7.47;100.00;103168.88;5178174;28;20026;-85
2022/03/27 07:37:22;;;;;;;37.67;32.25;;;;;;;7.50;100.00;103169.34;5178728;28;20026;-85
2022/03/27 07:39:53;;;;;;;38.20;27.77;;;;;;;6.90;100.00;103075.19;5177526;28;20022;-84
2022/03/27 07:42:23;;;;;;;32.13;28.90;;;;;;;7.51;100.00;103168.31;5177037;28;20026;-84
2022/03/27 07:44:54;;;;;;;52.47;33.75;;;;;;;6.97;100.00;103086.88;5176920;28;20026;-83
2022/03/27 07:47:24;;;;;;;35.83;30.48;;;;;;;7.50;100.00;103160.44;5176699;28;20058;-85
2022/03/27 07:49:54;;;;;;;35.28;31.60;;;;;;;7.44;100.00;103173.56;5176186;28;20023;-84
2022/03/27 07:52:27;;;;;;;32.85;27.77;;;;;;;7.45;100.00;103147.53;5176521;28;20026;-83
2022/03/27 07:54:57;;;;;;;34.42;30.80;;;;;;;7.04;100.00;103060.97;5175848;28;20026;-84
2022/03/27 07:57:28;;;;;;;36.05;31.65;;;;;;;7.42;100.00;103119.16;5176541;28;20021;-84
2022/03/27 07:59:59;;;;;;;35.13;30.30;;;;;;;7.73;100.00;103153.19;5177863;28;20082;-83
2022/03/27 08:02:29;;;;;;;38.85;31.27;;;;;;;7.34;100.00;103102.25;5178668;28;20053;-84
2022/03/27 08:05:00;;;;;;;35.15;29.50;;;;;;;7.67;100.00;103148.53;5181383;28;20116;-84
2022/03/27 08:07:30;;;;;;;39.85;32.45;;;;;;;7.75;100.00;103153.84;5181203;28;20045;-83
2022/03/27 08:10:01;;;;;;;34.83;28.70;;;;;;;7.32;100.00;103067.47;5182335;28;20026;-83
2022/03/27 08:12:32;;;;;;;39.45;32.08;;;;;;;7.84;100.00;103139.28;5181306;28;20022;-84
2022/03/27 08:15:04;;;;;;;34.15;30.17;;;;;;;7.81;100.00;103134.28;5180109;28;20513;-85
2022/03/27 08:17:35;;;;;;;35.28;31.50;;;;;;;7.82;100.00;103162.84;5180216;28;20026;-84
2022/03/27 08:20:06;;;;;;;34.90;28.13;;;;;;;7.91;100.00;103134.84;5179184;28;20022;-84
2022/03/27 08:22:36;;;;;;;34.33;30.95;;;;;;;7.85;100.00;103130.19;5179559;28;20038;-83
2022/03/27 08:25:07;;;;;;;36.83;29.50;;;;;;;7.74;100.00;103138.72;5178943;28;20026;-83
2022/03/27 08:27:38;;;;;;;40.80;29.25;;;;;;;8.02;100.00;103155.94;5178826;28;20030;-84
2022/03/27 08:30:09;;;;;;;56.70;34.78;;;;;;;7.99;100.00;103153.63;5179153;28;20027;-84
2022/03/27 08:32:39;;;;;;;43.40;34.13;;;;;;;7.14;100.00;103023.13;5178145;28;20030;-83
2022/03/27 08:35:11;;;;;;;48.10;33.40;;;;;;;7.74;100.00;103099.22;5178735;28;20465;-83
2022/03/27 08:37:42;;;;;;;37.97;34.15;;;;;;;7.79;100.00;103098.69;5177984;28;20014;-84
2022/03/27 08:40:15;;;;;;;39.72;34.47;;;;;;;8.09;100.00;103153.34;5179248;28;20033;-84
2022/03/27 08:42:45;;;;;;;41.42;34.20;;;;;;;7.68;100.00;103085.66;5178639;28;20040;-86
2022/03/27 08:45:16;;;;;;;42.50;35.58;;;;;;;7.95;100.00;103128.09;5178359;28;20033;-83
2022/03/27 08:47:47;;;;;;;39.75;34.15;;;;;;;7.34;100.00;103038.56;5177565;28;20113;-85
2022/03/27 08:50:37;;;;;;;39.83;31.65;;;;;;;8.13;100.00;103160.03;5176952;28;20037;-86
2022/03/27 08:53:11;;;;;;;45.50;32.90;;;;;;;7.93;100.00;103124.75;5178238;28;20114;-85
2022/03/27 08:55:57;;;;;;;39.22;34.92;;;;;;;8.24;100.00;103156.91;5176638;28;20113;-83
2022/03/27 08:58:37;;;;;;;36.85;31.70;;;;;;;8.21;100.00;103148.34;5177130;28;20042;-84
2022/03/27 09:01:09;;;;;;;41.83;34.28;;;;;;;7.71;100.00;103042.28;5176122;28;20022;-83
2022/03/27 09:03:40;;;;;;;41.53;34.78;;;;;;;8.40;100.00;103147.84;5177400;28;20585;-84
2022/03/27 09:06:10;;;;;;;39.50;33.38;;;;;;;8.46;100.00;103142.53;5177096;28;20089;-84
2022/03/27 09:08:40;;;;;;;38.60;33.88;;;;;;;7.98;100.00;103082.00;5177208;28;20105;-83
2022/03/27 09:11:19;;;;;;;48.85;37.42;;;;;;;8.03;100.00;103063.44;5176553;28;20103;-85
2022/03/27 09:13:52;;;;;;;37.78;31.40;;;;;;;8.73;100.00;103157.19;5177984;28;20482;-84
2022/03/27 09:16:23;;;;;;;35.95;28.75;;;;;;;8.68;100.00;103148.00;5177263;28;20265;-84
2022/03/27 09:18:58;;;;;;;33.47;27.42;;;;;;;8.83;100.00;103169.56;5177762;28;20030;-86
2022/03/27 09:21:28;;;;;;;33.75;27.60;;;;;;;8.50;100.00;103128.72;5176552;28;20069;-86
2022/03/27 09:24:02;;;;;;;37.13;26.63;;;;;;;8.77;100.00;103169.28;5177838;28;20027;-85
2022/03/27 09:26:32;;;;;;;36.15;27.55;;;;;;;8.69;100.00;103160.44;5178053;28;20027;-86
2022/03/27 09:29:10;;;;;;;34.08;27.67;;;;;;;8.59;100.00;103160.75;5177402;28;20057;-84
2022/03/27 09:31:41;;;;;;;26.10;23.50;;;;;;;8.30;100.00;103107.72;5178400;28;20054;-85
2022/03/27 09:34:11;;;;;;;29.85;22.65;;;;;;;8.27;100.00;103136.84;5177952;28;20065;-84
2022/03/27 09:36:43;;;;;;;30.98;25.45;;;;;;;8.03;100.00;103071.53;5177913;28;20022;-84
2022/03/27 09:39:22;;;;;;;30.00;25.70;;;;;;;7.71;100.00;103012.69;5176259;28;20069;-85
2022/03/27 09:41:58;;;;;;;40.90;28.15;;;;;;;8.75;100.00;103167.78;5176767;28;20105;-86
2022/03/27 09:44:28;;;;;;;35.85;28.50;;;;;;;8.89;100.00;103169.66;5177542;28;20206;-83
2022/03/27 09:46:59;;;;;;;28.33;25.48;;;;;;;8.92;100.00;103171.13;5177521;28;20091;-85
2022/03/27 09:49:35;;;;;;;30.02;26.05;;;;;;;8.94;100.00;103161.84;5178793;28;20069;-86
2022/03/27 09:52:12;;;;;;;27.88;25.10;;;;;;;9.02;100.00;103152.78;5178499;28;20037;-83
2022/03/27 09:54:47;;;;;;;29.48;24.42;;;;;;;9.14;100.00;103157.50;5176214;28;20080;-85
2022/03/27 09:57:26;;;;;;;35.58;25.02;;;;;;;9.07;100.00;103147.66;5177678;28;20038;-85
2022/03/27 10:00:18;;;;;;;24.35;19.15;;;;;;;9.02;100.00;103145.53;5177077;28;20026;-83
2022/03/27 10:02:51;;;;;;;32.13;28.58;;;;;;;9.17;100.00;103153.59;5177463;28;20072;-84
2022/03/27 10:05:21;;;;;;;34.15;29.08;;;;;;;8.90;100.00;103108.50;5177112;28;20033;-84
2022/03/27 10:07:56;;;;;;;34.58;27.27;;;;;;;9.20;100.00;103137.03;5175819;28;20502;-84
2022/03/27 10:10:28;;;;;;;33.40;26.40;;;;;;;9.27;100.00;103155.97;5176760;28;20037;-85
2022/03/27 10:12:59;;;;;;;35.15;27.77;;;;;;;9.06;100.00;103113.66;5175679;28;20090;-86
2022/03/27 10:15:30;;;;;;;35.92;29.75;;;;;;;9.17;100.00;103133.88;5176069;28;20065;-84
2022/03/27 10:18:09;;;;;;;30.08;26.50;;;;;;;8.82;100.00;103076.28;5177530;28;20031;-85
2022/03/27 10:20:40;;;;;;;29.45;26.30;;;;;;;9.30;100.00;103148.31;5178164;28;20061;-85
2022/03/27 10:23:20;;;;;;;35.88;29.63;;;;;;;9.22;100.00;103155.72;5176817;28;20123;-83
2022/03/27 10:25:58;;;;;;;29.75;26.77;;;;;;;8.95;100.00;103100.69;5176987;28;20096;-84
2022/03/27 10:28:29;;;;;;;31.80;26.23;;;;;;;9.22;100.00;103153.03;5175775;28;20023;-84
2022/03/27 10:31:00;;;;;;;33.05;26.95;;;;;;;9.14;100.00;103140.50;5176657;28;20026;-85
2022/03/27 10:33:31;;;;;;;33.78;28.35;;;;;;;9.17;100.00;103118.53;5183018;28;20030;-85
2022/03/27 10:36:18;;;;;;;30.60;26.40;;;;;;;9.52;100.00;103129.47;5176484;28;20037;-84
2022/03/27 10:39:04;;;;;;;35.63;30.83;;;;;;;9.68;100.00;103139.97;5175598;28;20090;-84
2022/03/27 10:41:43;;;;;;;35.15;27.80;;;;;;;9.51;100.00;103103.53;5177118;28;20044;-84
2022/03/27 10:44:30;;;;;;;34.58;29.42;;;;;;;9.91;100.00;103123.56;5175584;28;20030;-84
2022/03/27 10:47:24;;;;;;;33.45;27.15;;;;;;;9.93;100.00;103067.50;5176483;28;20027;-85
2022/03/27 10:50:01;;;;;;;36.80;29.00;;;;;;;10.32;100.00;103120.97;5177837;28;20049;-85
2022/03/27 10:52:34;;;;;;;35.80;27.92;;;;;;;9.64;100.00;103017.28;5178378;28;20053;-85
2022/03/27 10:55:11;;;;;;;30.38;26.45;;;;;;;9.94;100.00;103070.03;5179201;28;20030;-85
2022/03/27 10:57:45;;;;;;;33.10;25.70;;;;;;;9.72;100.00;103063.84;5177202;28;20026;-85
2022/03/27 11:00:39;;;;;;;34.55;30.08;;;;;;;10.27;100.00;103126.13;5176489;28;20026;-85
2022/03/27 11:03:10;;;;;;;41.20;31.17;;;;;;;10.28;100.00;103144.00;5175549;28;20033;-85
2022/03/27 11:05:41;;;;;;;30.85;27.70;;;;;;;10.22;100.00;103109.69;5176087;28;20478;-85
2022/03/27 11:08:15;;;;;;;33.28;29.17;;;;;;;10.26;100.00;103111.78;5176907;28;20019;-85
2022/03/27 11:10:51;;;;;;;37.22;32.47;;;;;;;10.27;100.00;103080.22;5175947;28;20061;-84
2022/03/27 11:13:28;;;;;;;35.35;30.48;;;;;;;10.40;100.00;103115.38;5175254;28;20023;-86
2022/03/27 11:16:11;;;;;;;35.67;29.42;;;;;;;10.51;100.00;103111.28;5176212;28;20030;-85
2022/03/27 11:18:49;;;;;;;37.97;30.83;;;;;;;10.51;100.00;103111.28;5174940;28;20027;-85
2022/03/27 11:21:28;;;;;;;40.63;31.65;;;;;;;10.39;100.00;103108.34;5174523;28;20059;-86
2022/03/27 11:24:05;;;;;;;33.85;29.08;;;;;;;10.59;100.00;103125.47;5174015;28;20052;-86
2022/03/27 11:26:35;;;;;;;32.35;28.85;;;;;;;10.69;100.00;103104.28;5174102;28;20045;-85
2022/03/27 11:29:21;;;;;;;36.78;29.85;;;;;;;10.68;100.00;103104.53;5175235;28;20018;-84
2022/03/27 11:32:09;;;;;;;34.30;30.05;;;;;;;10.64;100.00;103097.84;5174045;28;20104;-86
2022/03/27 11:34:39;;;;;;;35.97;30.70;;;;;;;10.47;100.00;103106.28;5177454;28;20026;-88
2022/03/27 11:37:22;;;;;;;34.30;30.77;;;;;;;10.22;100.00;103070.00;5182381;28;20041;-86
2022/03/27 11:39:54;;;;;;;34.45;30.75;;;;;;;10.53;100.00;103096.53;5189855;28;20033;-84
2022/03/27 11:42:34;;;;;;;30.15;27.08;;;;;;;10.27;100.00;103042.41;5188398;28;20030;-86
2022/03/27 11:45:17;;;;;;;30.45;27.30;;;;;;;10.31;100.00;103055.31;5182875;28;20030;-86